x

Fowey Rock, Fl (fwyf1) Weather Station

11:00am - Thu 17th Apr 2014 All times are EDT. -4 hours from GMT.

  • Wind
    20mph, 21mph gusts
  • Sea Temp 78°f
  • Air Temp 76°f
  • Sea Pressure 1020.1mb
  • Fowey Rock, Fl
  • Fowey Rock, Fl

More Historic Weather Station data

Upgrade to MSW Pro to gain access to the past 30 days of data for over 8000 Wavebouys and Weather Stations around the globe.

Join Pro

Comparision Forecast

View Surf forecast
   
Thu 04/17 11:00am 20 21 mph 1020.1mb 78f 76f
10:00am 15 16 mph 1019.6mb 78f 78f
9:00am 11 14 mph 1019.2mb 78f 78f
8:00am 14
mph
1018.7mb 78f 78f
7:00am 16 17 mph 1017.8mb 78f 77f
6:00am 16 18 mph 1017.4mb 78f 76f
5:00am 16 17 mph 1017.1mb 78f 77f
4:00am 18 20 mph 1016.8mb 78f 77f
3:00am 15 16 mph 1017.3mb 78f 77f
2:00am 15 17 mph 1017.4mb 78f 77f
1:00am 17 18 mph 1018.2mb 78f 77f
12:00am 21 22 mph 1018.1mb 78f 77f
Wed 04/16 11:00pm 17 20 mph 1018mb 78f 77f
10:00pm 16 17 mph 1018.2mb 78f 77f
9:00pm 18 21 mph 1017.3mb 78f 77f
8:00pm 20
mph
1016.8mb 78f 76f
7:00pm 20 21 mph 1016.2mb 79f 76f
6:00pm 20
mph
1016mb 79f 76f
5:00pm 18 20 mph 1015.8mb 79f 76f
4:00pm 18 20 mph 1015.9mb 79f 76f
3:00pm 16 18 mph 1016.6mb 79f 76f
2:00pm 18 20 mph 1017.2mb 79f 75f
1:00pm 23 25 mph 1017.6mb 78f 74f
12:00pm 21 24 mph 1017.7mb 78f 75f
11:00am 17 21 mph 1017.5mb 78f 75f
10:00am 16 18 mph 1016.6mb 78f 74f
9:00am 14 16 mph 1015.8mb 78f 73f
8:00am 20 21 mph 1015.4mb 78f 74f
7:00am 13 14 mph 1014.8mb 78f 74f
6:00am 10 11 mph 1014.2mb 79f 76f
5:00am 11 13 mph 1013.5mb 79f 77f
4:00am 13 14 mph 1013.4mb 79f 77f
3:00am 9
mph
1013.6mb 78f 77f
2:00am 9
mph
1013.9mb 78f 78f
1:00am 14 15 mph 1014.3mb 78f 78f
12:00am 16 17 mph 1014.1mb 78f 78f
Tue 04/15 11:00pm 13
mph
1013.4mb 78f 78f
10:00pm 11
mph
1013.8mb 78f 78f
9:00pm 13 14 mph 1013.6mb 78f 78f
8:00pm 15
mph
1012.9mb 78f 79f
7:00pm 20 21 mph 1012.5mb 78f 80f
6:00pm 23 25 mph 1011.4mb 79f 80f
5:00pm 21 24 mph 1011.4mb 79f 80f
4:00pm 20 21 mph 1012mb 78f 80f
3:00pm 16 17 mph 1012.7mb 78f 80f
2:00pm 18 20 mph 1013.3mb 78f 80f
1:00pm 17 18 mph 1013.7mb 78f 81f
12:00pm 17 18 mph 1013.9mb 77f 81f
11:00am 20 22 mph 1014.2mb 77f 80f
10:00am 20 21 mph 1014mb 77f 80f
9:00am 22
mph
1013.7mb 77f 79f
8:00am 21
mph
1013.7mb 77f 78f
7:00am 18 20 mph 1013.4mb 77f 78f
6:00am 17
mph
1013.2mb 77f 78f
5:00am 14
mph
1012.9mb 77f 78f
4:00am 15 16 mph 1012.8mb 77f 78f
3:00am 16 17 mph 1012.5mb 76f 78f
2:00am 17 18 mph 1012.8mb 76f 77f
1:00am 15 16 mph 1013.3mb 77f 77f
12:00am 15 16 mph 1013.4mb 76f 78f
Mon 04/14 11:00pm 16 17 mph 1013.8mb 76f 78f
10:00pm 14 15 mph 1014.2mb 76f 78f
9:00pm 13
mph
1013.9mb 76f 78f
8:00pm 15 16 mph 1013.3mb 76f 78f
7:00pm 15 16 mph 1013.2mb 77f 78f
6:00pm 14 15 mph 1013.4mb 78f 78f
5:00pm 14 15 mph 1013.3mb 78f 78f
4:00pm 15
mph
1013.9mb 78f 78f
3:00pm 11
mph
1014.8mb 78f 78f
2:00pm 13 14 mph 1015.4mb 78f 78f
1:00pm 10 11 mph 1015.8mb 77f 78f
12:00pm 11 13 mph 1016.1mb 77f 78f
11:00am 15 16 mph 1016.4mb 77f 78f
10:00am 15 17 mph 1016mb 77f 78f
9:00am 15 16 mph 1015.5mb 77f 78f
8:00am 17 18 mph 1015mb 77f 77f
7:00am 15 16 mph 1014.6mb 77f 77f
6:00am 14 15 mph 1014.2mb 77f 77f
5:00am 13 14 mph 1014.4mb 77f 77f
4:00am 14 15 mph 1014.5mb 77f 77f
3:00am 13 14 mph 1014.7mb 77f 77f
2:00am 18
mph
1015mb 77f 77f
1:00am 20 21 mph 1015.4mb 77f 77f
12:00am 20 21 mph 1015.8mb 77f 77f
Sun 04/13 11:00pm 21 22 mph 1016.1mb 77f 77f
10:00pm 21 22 mph 1016.2mb 77f 77f
9:00pm 21 22 mph 1015.7mb 77f 77f
8:00pm 22 23 mph 1015.5mb 77f 77f
7:00pm 17 18 mph 1015.6mb 77f 77f
6:00pm 16 17 mph 1015.6mb 77f 77f
5:00pm 16 17 mph 1015.7mb 77f 77f